Time;durP1;ratioP1;P1;durP2;ratioP2;P2;SDS_P1;SDS_P2;PMS_P1;PMS_P2;Temp;Humidity;BMP_temperature;BMP_pressure;BME280_temperature;BME280_humidity;BME280_pressure;Samples;Min_cycle;Max_cycle;Signal;HPM_P1;HPM_P2
2023/02/25 00:01:22;;;;;;;24.73;10.05;;;;;;;-1.24;67.24;98115.16;6110409;23;20044;-79
2023/02/25 00:04:17;;;;;;;19.67;9.93;;;;;;;-0.82;67.34;98173.47;6137585;23;20022;-82
2023/02/25 00:06:44;;;;;;;21.45;9.75;;;;;;;-0.89;67.11;98166.59;6113148;23;20041;-79
2023/02/25 00:09:16;;;;;;;19.23;9.48;;;;;;;-0.85;67.16;98147.91;6161509;23;20028;-81
2023/02/25 00:11:48;;;;;;;19.00;9.13;;;;;;;-0.80;67.32;98169.25;6159041;23;20018;-81
2023/02/25 00:14:14;;;;;;;20.75;8.82;;;;;;;-0.97;67.26;98136.69;6111741;23;20029;-81
2023/02/25 00:16:44;;;;;;;20.35;8.90;;;;;;;-0.97;67.22;98136.69;6137849;23;20045;-80
2023/02/25 00:19:11;;;;;;;19.25;8.85;;;;;;;-1.21;67.40;98092.19;6112599;23;20058;-80
2023/02/25 00:21:39;;;;;;;19.30;9.63;;;;;;;-0.81;67.05;98154.75;6108291;23;20024;-78
2023/02/25 00:24:06;;;;;;;16.45;8.68;;;;;;;-0.82;67.37;98153.88;6133271;23;20028;-80
2023/02/25 00:26:32;;;;;;;17.90;8.93;;;;;;;-0.96;67.56;98119.69;6108569;23;20392;-81
2023/02/25 00:28:58;;;;;;;20.77;9.73;;;;;;;-0.80;67.38;98134.31;6131349;23;20056;-79
2023/02/25 00:31:28;;;;;;;18.60;9.18;;;;;;;-0.77;67.66;98133.50;6131424;23;20069;-78
2023/02/25 00:33:54;;;;;;;19.35;9.10;;;;;;;-0.76;67.32;98138.63;6130160;23;20024;-81
2023/02/25 00:36:25;;;;;;;18.20;8.48;;;;;;;-0.77;67.14;98130.94;6131141;23;20021;-79
2023/02/25 00:39:14;;;;;;;18.50;8.93;;;;;;;-0.77;67.34;98131.81;6132716;23;20017;-81
2023/02/25 00:41:40;;;;;;;18.58;8.98;;;;;;;-0.74;67.38;98130.13;6156607;23;20018;-82
2023/02/25 00:44:07;;;;;;;18.92;9.40;;;;;;;-1.04;66.90;98081.31;6132618;23;20133;-82
2023/02/25 00:46:37;;;;;;;19.52;8.88;;;;;;;-0.86;67.59;98106.16;6132221;23;20528;-79
2023/02/25 00:49:03;;;;;;;17.35;8.90;;;;;;;-0.88;67.69;98096.78;6132434;23;20062;-82
2023/02/25 00:51:31;;;;;;;19.73;9.07;;;;;;;-0.78;67.60;98112.22;6133946;23;20553;-80
2023/02/25 00:53:58;;;;;;;19.83;9.05;;;;;;;-0.72;67.32;98118.22;6083350;23;20090;-80
2023/02/25 00:56:25;;;;;;;18.52;9.02;;;;;;;-0.79;67.23;98115.59;6130600;23;20018;-78
2023/02/25 00:58:56;;;;;;;19.90;9.10;;;;;;;-0.83;67.33;98102.81;6133182;23;20017;-79
2023/02/25 01:01:29;;;;;;;19.10;9.43;;;;;;;-0.86;67.60;98087.44;6132191;23;20017;-81
2023/02/25 01:03:56;;;;;;;17.73;8.35;;;;;;;-0.71;67.81;98115.69;6108233;23;20026;-80
2023/02/25 01:06:27;;;;;;;21.75;9.32;;;;;;;-0.69;67.33;98113.16;6108330;23;20104;-83
2023/02/25 01:08:56;;;;;;;17.85;9.23;;;;;;;-0.97;67.34;98072.00;6157748;23;20045;-81
2023/02/25 01:11:29;;;;;;;17.63;8.88;;;;;;;-1.09;67.62;98048.06;6133708;23;20093;-80
2023/02/25 01:14:24;;;;;;;16.73;8.63;;;;;;;-0.71;68.30;98110.56;6131432;23;20040;-79
2023/02/25 01:17:09;;;;;;;17.48;9.10;;;;;;;-0.68;67.48;98115.72;6132034;23;20018;-81
2023/02/25 01:19:35;;;;;;;19.10;9.32;;;;;;;-0.99;67.88;98041.34;6135217;23;20527;-81
2023/02/25 01:22:02;;;;;;;15.52;8.55;;;;;;;-0.58;68.13;98108.97;6109324;23;20475;-80
2023/02/25 01:24:31;;;;;;;19.65;9.00;;;;;;;-0.65;67.91;98086.75;6131301;23;20021;-82
2023/02/25 01:27:01;;;;;;;20.35;9.63;;;;;;;-0.55;68.23;98091.13;6133216;23;20014;-80
2023/02/25 01:29:39;;;;;;;17.00;9.30;;;;;;;-0.52;68.13;98092.84;6133396;23;20040;-83
2023/02/25 01:32:08;;;;;;;17.75;9.40;;;;;;;-0.51;68.03;98090.31;6156809;23;20017;-79
2023/02/25 01:34:38;;;;;;;17.58;9.40;;;;;;;-0.49;68.02;98098.84;6106884;23;20045;-81
2023/02/25 01:37:17;;;;;;;17.48;8.77;;;;;;;-0.97;68.08;98009.00;6131460;23;20341;-80
2023/02/25 01:39:47;;;;;;;18.85;9.52;;;;;;;-1.11;68.07;97996.16;6156195;23;20018;-81
2023/02/25 01:42:17;;;;;;;19.02;9.30;;;;;;;-1.05;68.03;97992.78;6133287;23;20025;-80
2023/02/25 01:53:27;;;;;;;17.65;8.85;;;;;;;-0.35;68.28;98083.63;6096461;23;20022;-78
2023/02/25 01:56:47;;;;;;;20.95;9.35;;;;;;;-1.10;68.30;97945.94;6035580;23;20082;-81
2023/02/25 01:59:20;;;;;;;20.08;9.32;;;;;;;-0.76;67.83;98000.69;6075913;23;20026;-81
2023/02/25 02:01:49;;;;;;;23.20;10.60;;;;;;;-0.26;68.30;98087.94;6051569;23;20027;-81
2023/02/25 02:04:17;;;;;;;17.77;9.07;;;;;;;-0.25;67.89;98082.00;6074977;23;20431;-84
2023/02/25 02:06:46;;;;;;;17.63;8.82;;;;;;;-0.34;68.08;98064.88;6075808;23;20024;-81
2023/02/25 02:10:01;;;;;;;20.45;8.40;;;;;;;-0.98;68.03;97966.44;6052411;23;20018;-78
2023/02/25 02:13:45;;;;;;;18.98;8.95;;;;;;;-0.57;67.80;98054.47;6079400;23;20026;-78
2023/02/25 02:17:30;;;;;;;19.05;8.52;;;;;;;-0.35;67.94;98073.41;5876565;24;20118;-80
2023/02/25 02:33:09;;;;;;;21.02;8.75;;;;;;;-0.29;68.48;98066.59;5783048;24;20420;-83
2023/02/25 02:35:59;;;;;;;18.15;9.63;;;;;;;-0.54;67.88;98017.84;5975062;23;20067;-80
2023/02/25 02:38:36;;;;;;;17.40;8.90;;;;;;;-0.30;67.68;98058.09;6130311;23;20014;-81
2023/02/25 02:41:12;;;;;;;17.38;9.23;;;;;;;-0.27;68.54;98057.25;6104044;23;20411;-79
2023/02/25 02:43:43;;;;;;;17.05;8.27;;;;;;;-0.27;67.97;98058.13;6129308;23;20448;-85
2023/02/25 02:46:34;;;;;;;25.30;9.47;;;;;;;-0.26;68.42;98048.72;6104149;23;20470;-81
2023/02/25 02:49:13;;;;;;;19.38;8.93;;;;;;;-0.35;67.85;98031.63;6129325;23;20022;-81
2023/02/25 02:51:45;;;;;;;18.75;9.73;;;;;;;-0.18;68.58;98059.88;6131430;23;20018;-79
2023/02/25 02:54:14;;;;;;;18.08;9.00;;;;;;;-0.21;68.46;98049.63;6128349;23;20423;-77
2023/02/25 02:56:43;;;;;;;17.83;9.65;;;;;;;-0.28;68.42;98043.63;6129965;23;20037;-79
2023/02/25 02:59:25;;;;;;;19.10;9.52;;;;;;;-0.28;67.74;98035.06;6079969;23;20024;-80
2023/02/25 03:02:04;;;;;;;19.98;9.85;;;;;;;-0.34;68.50;98039.34;6128115;23;20053;-81
2023/02/25 03:04:35;;;;;;;17.63;9.32;;;;;;;-0.18;67.96;98044.53;6129194;23;20476;-81
2023/02/25 03:07:09;;;;;;;18.48;9.02;;;;;;;-0.16;68.42;98043.69;6129393;23;20064;-82
2023/02/25 03:09:38;;;;;;;18.30;9.23;;;;;;;-0.12;68.22;98039.47;6108915;23;20017;-81
2023/02/25 03:12:09;;;;;;;19.52;9.23;;;;;;;-0.22;68.25;98017.22;6107427;23;20102;-80
2023/02/25 03:14:36;;;;;;;21.13;9.73;;;;;;;-0.08;68.77;98036.06;6135707;23;20022;-79
2023/02/25 03:17:37;;;;;;;17.55;9.18;;;;;;;-0.06;68.16;98026.69;6086951;23;20464;-77
2023/02/25 03:20:10;;;;;;;17.70;8.88;;;;;;;0.02;69.00;98038.69;6107698;23;20021;-79
2023/02/25 03:22:40;;;;;;;19.15;9.20;;;;;;;-0.04;68.89;98022.44;6131443;23;20025;-78
2023/02/25 03:25:13;;;;;;;14.32;8.05;;;;;;;-0.04;68.70;98027.56;6130593;23;20018;-80
2023/02/25 03:27:42;;;;;;;18.02;9.45;;;;;;;-0.12;68.60;98011.34;6156643;23;20040;-80
2023/02/25 03:30:35;;;;;;;20.48;10.02;;;;;;;0.04;68.62;98029.31;6155154;23;20029;-80
2023/02/25 03:33:11;;;;;;;20.33;9.43;;;;;;;0.09;68.32;98027.63;6106344;23;20025;-79
2023/02/25 03:35:46;;;;;;;17.10;8.10;;;;;;;0.07;68.75;98027.59;6106853;23;20018;-78
2023/02/25 03:38:23;;;;;;;17.33;9.05;;;;;;;0.13;68.94;98024.22;6131703;23;20018;-79
2023/02/25 03:40:55;;;;;;;17.98;8.95;;;;;;;0.13;69.08;98019.09;6134515;23;20022;-79
2023/02/25 03:43:28;;;;;;;16.83;8.32;;;;;;;0.13;68.37;98009.75;6106825;23;20106;-78
2023/02/25 03:45:57;;;;;;;17.20;8.88;;;;;;;0.20;68.75;98010.63;6156228;23;20021;-82
2023/02/25 03:48:25;;;;;;;17.60;9.05;;;;;;;0.19;68.78;98006.34;6131793;23;20415;-79
2023/02/25 03:51:13;;;;;;;18.75;9.18;;;;;;;0.10;67.92;97999.50;6133104;23;20101;-78
2023/02/25 03:53:43;;;;;;;18.88;9.50;;;;;;;0.15;68.54;98007.19;6110715;23;20037;-82
2023/02/25 03:56:17;;;;;;;18.55;9.95;;;;;;;0.07;68.22;97990.97;6111105;23;20018;-79
2023/02/25 03:58:44;;;;;;;20.08;9.25;;;;;;;0.20;68.81;98015.72;6109632;23;20018;-79
2023/02/25 04:01:22;;;;;;;16.85;9.20;;;;;;;0.14;68.88;97995.22;6139225;23;20022;-80
2023/02/25 04:03:48;;;;;;;15.98;9.02;;;;;;;0.08;68.15;97982.44;6118866;23;20022;-78
2023/02/25 04:06:15;;;;;;;19.25;9.77;;;;;;;0.34;68.73;98028.59;6120529;23;20021;-76
2023/02/25 04:08:43;;;;;;;16.95;8.77;;;;;;;0.34;68.46;98012.38;6143563;23;20170;-77
2023/02/25 04:11:11;;;;;;;20.90;9.10;;;;;;;0.02;68.70;97955.09;6121641;23;20026;-77
2023/02/25 04:13:37;;;;;;;16.48;8.73;;;;;;;0.17;68.47;97974.78;6146510;23;20018;-78
2023/02/25 04:16:06;;;;;;;19.25;9.30;;;;;;;0.44;68.34;98011.56;6146050;23;20065;-81
2023/02/25 04:18:36;;;;;;;17.52;9.25;;;;;;;0.41;68.81;98002.19;6146404;23;20118;-77
2023/02/25 04:21:34;;;;;;;18.77;9.40;;;;;;;0.10;69.06;97947.50;6147066;23;20022;-77
2023/02/25 04:24:02;;;;;;;18.40;8.73;;;;;;;0.43;68.41;98004.72;6149214;23;20022;-77
2023/02/25 04:26:28;;;;;;;15.57;8.60;;;;;;;0.44;68.69;98009.84;6122841;23;20025;-80
2023/02/25 04:28:54;;;;;;;18.67;9.10;;;;;;;0.52;68.81;98019.25;6144772;23;20017;-77
2023/02/25 04:31:21;;;;;;;16.83;9.13;;;;;;;0.42;68.93;98003.03;6111398;23;20026;-77
2023/02/25 04:33:48;;;;;;;17.40;9.25;;;;;;;0.36;68.72;97993.63;6109340;23;20093;-78
2023/02/25 04:36:26;;;;;;;16.58;8.43;;;;;;;0.48;68.96;98012.41;6135875;23;20018;-78
2023/02/25 04:38:53;;;;;;;17.08;9.25;;;;;;;0.46;68.96;98004.75;6109505;23;20100;-78
2023/02/25 04:41:20;;;;;;;19.38;9.82;;;;;;;0.45;68.15;98010.72;6084688;23;20041;-78
2023/02/25 04:43:46;;;;;;;18.27;9.27;;;;;;;0.47;68.76;98001.34;6084956;23;20028;-78
2023/02/25 04:46:13;;;;;;;16.85;9.48;;;;;;;0.55;68.70;98006.47;6107907;23;20099;-81
2023/02/25 04:48:39;;;;;;;17.63;9.13;;;;;;;0.49;68.03;98002.19;6132511;23;20029;-80
2023/02/25 04:51:23;;;;;;;17.30;8.57;;;;;;;0.52;68.81;98012.44;6110644;23;20013;-78
2023/02/25 04:53:49;;;;;;;16.00;9.02;;;;;;;0.52;68.42;98015.00;6083147;23;20033;-80
2023/02/25 04:56:15;;;;;;;16.33;8.90;;;;;;;0.50;68.96;98006.47;6132792;23;20121;-80
2023/02/25 04:58:50;;;;;;;;;;;;;;;0.68;68.35;98027.84;6131220;23;20014;-80
2023/02/25 05:01:16;;;;;;;16.38;8.35;;;;;;;0.65;68.60;98010.78;6108801;23;20298;-81
2023/02/25 05:03:57;;;;;;;16.83;9.00;;;;;;;0.65;68.35;98018.47;6090938;23;20022;-79
2023/02/25 05:06:27;;;;;;;18.63;8.85;;;;;;;0.72;68.18;98040.66;6135147;23;20044;-80
2023/02/25 05:08:57;;;;;;;16.77;9.00;;;;;;;0.73;68.53;98031.28;6136281;23;20090;-78
2023/02/25 05:11:36;;;;;;;17.08;8.85;;;;;;;0.48;69.03;97969.78;6133869;23;20028;-80
2023/02/25 05:14:32;;;;;;;16.30;7.90;;;;;;;0.51;68.93;97963.78;6112946;23;20021;-81
2023/02/25 05:17:00;;;;;;;15.98;8.13;;;;;;;0.81;68.46;98006.53;6100379;23;20018;-80
2023/02/25 05:19:31;;;;;;;19.05;8.35;;;;;;;0.90;68.55;98011.66;6135283;23;20022;-80
2023/02/25 05:22:01;;;;;;;15.90;8.00;;;;;;;0.95;67.89;98027.03;6135201;23;20014;-80
2023/02/25 05:24:38;;;;;;;14.18;8.27;;;;;;;0.75;69.07;97998.84;6086076;23;20041;-81
2023/02/25 05:27:15;;;;;;;15.60;8.25;;;;;;;0.37;68.80;97921.13;6133667;23;20096;-80
2023/02/25 05:30:13;;;;;;;13.93;7.55;;;;;;;0.44;68.53;97945.00;6135085;23;20027;-81
2023/02/25 05:32:57;;;;;;;16.27;8.38;;;;;;;0.62;69.01;97961.25;6133417;23;20057;-80
2023/02/25 05:35:24;;;;;;;14.50;8.05;;;;;;;0.45;68.11;97933.94;6132931;23;20014;-79
2023/02/25 05:37:50;;;;;;;16.00;8.90;;;;;;;0.85;68.09;97989.47;6133279;23;20037;-79
2023/02/25 05:40:22;;;;;;;18.15;8.57;;;;;;;0.60;68.84;97956.97;6110666;23;20069;-82
2023/02/25 05:42:48;;;;;;;17.45;8.85;;;;;;;0.81;68.59;97983.47;6137685;23;20482;-79
2023/02/25 05:45:33;;;;;;;14.23;8.07;;;;;;;0.72;68.83;97960.44;6111400;23;20044;-78
2023/02/25 05:48:39;;;;;;;15.60;8.80;;;;;;;0.89;69.23;97994.59;6156986;23;20029;-80
2023/02/25 05:51:39;;;;;;;19.77;7.72;;;;;;;0.96;69.20;97986.91;6134088;23;20028;-78
2023/02/25 05:54:40;;;;;;;12.90;7.32;;;;;;;0.90;68.78;97960.44;6135308;23;20072;-81
2023/02/25 05:57:45;;;;;;;13.43;7.72;;;;;;;1.01;68.37;97980.94;6085828;23;20177;-81
2023/02/25 06:00:39;;;;;;;15.30;8.13;;;;;;;0.65;68.20;97925.41;6059782;23;20014;-83
2023/02/25 06:03:05;;;;;;;17.25;7.95;;;;;;;1.07;68.62;97987.75;6077430;23;20125;-81
2023/02/25 06:05:53;;;;;;;16.42;8.10;;;;;;;1.07;68.71;97967.28;6051010;23;20022;-80
2023/02/25 06:12:41;;;;;;;14.27;7.53;;;;;;;1.60;68.97;98045.00;6021596;23;20018;-82
2023/02/25 06:16:30;;;;;;;12.55;7.00;;;;;;;1.49;68.57;98014.22;5973522;24;20035;-83
2023/02/25 06:19:55;;;;;;;14.40;7.20;;;;;;;1.34;68.59;97968.13;5841519;24;20105;-83
2023/02/25 06:23:12;;;;;;;;;;;;;;;;;;;;;
2023/02/25 06:34:31;;;;;;;;;;;;;;;;;;;;;
2023/02/25 06:47:14;;;;;;;11.35;6.70;;;;;;;2.56;67.77;98046.44;5987298;24;20028;-80
2023/02/25 06:49:51;;;;;;;12.35;6.18;;;;;;;1.76;67.79;97903.94;5886964;24;20028;-83
2023/02/25 06:52:26;;;;;;;10.52;6.30;;;;;;;2.24;66.94;97970.44;5920152;23;20829;-81
2023/02/25 06:55:20;;;;;;;11.90;6.53;;;;;;;2.71;67.79;98025.84;6010399;23;20029;-78
2023/02/25 06:57:56;;;;;;;10.13;6.60;;;;;;;2.90;67.32;98051.41;6123575;23;20018;-80
2023/02/25 07:01:09;;;;;;;11.57;6.72;;;;;;;2.93;67.29;98058.25;6130734;23;20324;-83
2023/02/25 07:03:55;;;;;;;13.00;6.47;;;;;;;2.26;67.30;97943.88;6043818;23;20030;-81
2023/02/25 07:06:30;;;;;;;11.27;6.55;;;;;;;2.12;67.13;97912.31;6128259;23;20075;-80
2023/02/25 07:09:46;;;;;;;;;;;;;;;;;;;;;
2023/02/25 07:12:42;;;;;;;12.25;6.40;;;;;;;3.22;66.95;98058.06;6109845;23;20030;-84
2023/02/25 07:15:27;;;;;;;11.53;7.03;;;;;;;2.83;67.15;97958.13;6079249;23;20018;-81
2023/02/25 07:18:39;;;;;;;;;;;;;;;;;;;;;
2023/02/25 07:22:17;;;;;;;11.05;6.38;;;;;;;3.13;66.65;97968.16;6106560;23;20018;-79
2023/02/25 07:25:05;;;;;;;9.68;5.85;;;;;;;3.00;66.22;97939.97;6092472;23;20022;-79
2023/02/25 07:28:08;;;;;;;7.93;5.18;;;;;;;3.71;66.36;98063.69;6074046;23;20030;-78
2023/02/25 07:30:43;;;;;;;8.10;5.28;;;;;;;3.53;65.76;98026.97;6075981;23;20030;-81
2023/02/25 07:34:49;;;;;;;;;;;;;;;;;;;;;
2023/02/25 07:38:06;;;;;;;10.32;6.00;;;;;;;3.81;66.25;98062.75;6096783;23;20022;-81
2023/02/25 07:45:44;;;;;;;8.93;5.57;;;;;;;4.26;65.82;98059.69;5962950;23;20024;-78
2023/02/25 07:49:04;;;;;;;7.15;5.28;;;;;;;4.19;65.86;98076.94;5958600;24;20016;-79
2023/02/25 07:52:23;;;;;;;10.07;5.60;;;;;;;3.66;65.71;98011.41;6041444;23;20106;-80
2023/02/25 07:55:14;;;;;;;9.02;5.05;;;;;;;3.39;65.47;97975.66;6042134;23;20019;-80
2023/02/25 07:58:16;;;;;;;8.52;5.15;;;;;;;3.99;65.75;98055.69;6019396;23;20023;-82
2023/02/25 08:01:39;;;;;;;10.60;5.63;;;;;;;3.68;65.54;97996.81;6006755;23;20019;-79
2023/02/25 08:07:13;;;;;;;7.07;5.10;;;;;;;3.68;65.41;97997.69;6046872;23;20011;-81
2023/02/25 08:09:58;;;;;;;8.95;5.45;;;;;;;3.98;65.91;98031.66;6012705;23;20106;-82
2023/02/25 08:12:37;;;;;;;8.25;5.50;;;;;;;4.26;65.27;98064.00;5991834;23;20030;-81
2023/02/25 08:15:49;;;;;;;7.10;5.32;;;;;;;4.34;65.89;98075.91;6037234;23;20041;-82
2023/02/25 08:18:19;;;;;;;;;;;;;;;4.30;65.48;98063.09;6140504;23;20704;-81
2023/02/25 08:20:50;;;;;;;7.07;5.00;;;;;;;4.21;65.23;98051.16;6123042;23;19919;-81
2023/02/25 08:23:22;;;;;;;9.25;5.47;;;;;;;3.71;64.72;97989.06;6128132;23;20022;-83
2023/02/25 08:25:55;;;;;;;6.97;4.57;;;;;;;3.81;64.90;98002.69;6131525;23;20017;-83
2023/02/25 08:28:41;;;;;;;9.85;4.90;;;;;;;4.01;65.04;98056.53;6092083;23;20022;-84
2023/02/25 08:31:35;;;;;;;9.77;5.18;;;;;;;4.05;65.61;98059.06;6137540;23;20052;-82
2023/02/25 08:34:27;;;;;;;7.82;4.70;;;;;;;3.83;65.66;98014.69;6131037;23;20033;-83
2023/02/25 08:36:58;;;;;;;7.55;5.15;;;;;;;3.79;65.90;97997.56;6132920;23;20022;-84
2023/02/25 08:43:10;;;;;;;6.72;4.80;;;;;;;3.94;65.76;98014.56;5998438;23;20019;-81
2023/02/25 08:46:22;;;;;;;7.35;5.35;;;;;;;4.25;65.95;98067.44;6034087;23;20052;-83
2023/02/25 08:48:55;;;;;;;6.77;4.77;;;;;;;3.77;65.48;97984.69;6007917;23;20411;-82
2023/02/25 08:51:33;;;;;;;9.23;5.40;;;;;;;4.26;65.49;98064.00;6123334;23;20273;-80
2023/02/25 08:54:21;;;;;;;;;;;;;;;;;;;;;
2023/02/25 08:57:32;;;;;;;8.32;5.10;;;;;;;3.80;65.07;97990.69;6107330;23;20109;-80
2023/02/25 09:00:04;;;;;;;9.68;5.32;;;;;;;4.30;65.72;98087.13;6125187;23;20029;-80
2023/02/25 09:02:43;;;;;;;7.50;5.30;;;;;;;3.82;65.70;98006.97;6076048;23;20025;-82
2023/02/25 09:05:25;;;;;;;7.20;5.10;;;;;;;3.84;65.46;98007.81;6123775;23;20022;-79
2023/02/25 09:07:55;;;;;;;9.48;5.32;;;;;;;4.31;66.10;98083.69;6149779;23;20025;-80
2023/02/25 09:10:22;;;;;;;8.35;5.30;;;;;;;3.57;65.76;97964.34;6126463;23;20022;-81
2023/02/25 09:12:49;;;;;;;7.15;5.10;;;;;;;4.05;65.53;98029.91;6126162;23;20024;-80
2023/02/25 09:15:17;;;;;;;8.20;4.97;;;;;;;3.92;65.48;98018.88;6127638;23;20024;-81
2023/02/25 09:17:43;;;;;;;6.30;4.55;;;;;;;4.19;65.74;98038.31;6098257;23;20010;-82
2023/02/25 09:20:17;;;;;;;6.97;4.90;;;;;;;3.75;65.36;97981.28;6102268;23;20018;-81
2023/02/25 09:22:46;;;;;;;9.20;4.85;;;;;;;3.96;65.98;98009.41;6128627;23;20022;-82
2023/02/25 09:25:29;;;;;;;7.97;4.72;;;;;;;4.47;65.73;98079.22;6102324;23;20459;-83
2023/02/25 09:27:56;;;;;;;7.13;4.80;;;;;;;4.47;65.39;98068.91;6123161;23;20022;-81
2023/02/25 09:30:21;;;;;;;7.97;5.32;;;;;;;4.57;65.95;98073.94;6121726;23;20029;-81
2023/02/25 09:32:56;;;;;;;7.88;4.80;;;;;;;4.63;65.33;98071.28;6121537;23;20018;-83
2023/02/25 09:35:25;;;;;;;9.05;5.05;;;;;;;4.56;65.96;98062.78;6096603;23;20033;-84
2023/02/25 09:37:57;;;;;;;7.53;4.90;;;;;;;4.84;65.64;98070.19;6096942;23;20363;-82
2023/02/25 09:40:26;;;;;;;7.75;4.97;;;;;;;4.86;65.79;98070.97;6096343;23;20025;-82
2023/02/25 09:43:18;;;;;;;8.30;5.20;;;;;;;4.45;65.53;97975.34;6120163;23;20018;-83
2023/02/25 09:46:01;;;;;;;6.82;4.78;;;;;;;4.87;65.23;98030.59;6124440;23;20028;-85
2023/02/25 09:48:43;;;;;;;7.10;4.38;;;;;;;4.33;65.17;97934.28;6123452;23;20022;-84
2023/02/25 09:51:26;;;;;;;6.35;4.53;;;;;;;5.39;65.44;98083.13;6149148;23;20045;-82
2023/02/25 09:54:20;;;;;;;5.88;4.30;;;;;;;4.59;64.48;97939.09;6128262;23;20022;-81
2023/02/25 09:56:46;;;;;;;9.63;4.43;;;;;;;4.59;65.00;97958.84;6122533;23;20448;-81
2023/02/25 09:59:45;;;;;;;9.05;5.00;;;;;;;5.41;65.62;98060.75;6122197;23;20017;-79
2023/02/25 10:03:28;;;;;;;5.85;4.25;;;;;;;4.64;64.61;97932.13;6124533;23;20018;-85
2023/02/25 10:06:28;;;;;;;;;;;;;;;;;;;;;
2023/02/25 10:09:07;;;;;;;6.22;3.80;;;;;;;5.39;65.11;98053.06;6125744;23;20022;-83
2023/02/25 10:12:59;;;;;;;;;;;;;;;;;;;;;
2023/02/25 10:16:23;;;;;;;7.88;4.47;;;;;;;5.22;64.76;98044.69;6013041;23;20107;-83
2023/02/25 10:19:25;;;;;;;5.93;4.55;;;;;;;5.25;65.32;98037.78;6002272;23;20019;-83
2023/02/25 10:22:29;;;;;;;7.07;4.00;;;;;;;5.33;64.91;98047.09;6036253;23;20030;-84
2023/02/25 10:26:01;;;;;;;6.38;4.07;;;;;;;5.40;65.13;98047.00;5963460;23;20027;-80
2023/02/25 10:29:13;;;;;;;8.25;3.92;;;;;;;5.58;65.14;98056.16;6051503;23;20018;-80
2023/02/25 10:32:49;;;;;;;5.47;3.58;;;;;;;5.74;65.38;98045.56;6103279;23;20017;-82
2023/02/25 10:35:22;;;;;;;4.43;3.53;;;;;;;5.97;65.12;98049.47;6095931;23;20041;-80
2023/02/25 10:38:53;;;;;;;7.82;3.90;;;;;;;6.09;65.00;98061.34;6124543;23;20344;-81
2023/02/25 10:41:48;;;;;;;6.50;4.15;;;;;;;6.30;63.91;98055.78;6110601;23;20022;-80
2023/02/25 10:44:21;;;;;;;5.30;3.90;;;;;;;6.31;64.21;98051.47;6125624;23;20045;-81
2023/02/25 10:47:15;;;;;;;5.18;3.28;;;;;;;6.31;63.95;98056.63;6099707;23;20041;-86
2023/02/25 10:50:35;;;;;;;;;;;;;;;;;;;;;
2023/02/25 11:02:44;;;;;;;4.65;3.78;;;;;;;5.90;63.25;98061.66;5963223;24;20005;-85
2023/02/25 11:05:49;;;;;;;4.72;3.50;;;;;;;5.30;63.72;97962.06;5926956;24;20067;-85
2023/02/25 11:09:17;;;;;;;6.13;3.45;;;;;;;5.51;63.49;98018.47;5923289;24;20020;-81
2023/02/25 11:12:01;;;;;;;6.22;3.65;;;;;;;5.93;63.27;98071.09;5916765;24;20080;-89
2023/02/25 11:14:51;;;;;;;5.55;3.50;;;;;;;5.30;63.04;97983.53;5970158;24;20474;-83
2023/02/25 11:18:19;;;;;;;5.35;3.40;;;;;;;5.09;63.33;97953.78;5988946;24;20026;-84
2023/02/25 11:22:29;;;;;;;4.93;3.65;;;;;;;5.68;63.25;98025.88;5863004;24;20025;-83
2023/02/25 11:30:44;;;;;;;5.15;3.40;;;;;;;5.68;62.81;97999.25;6105225;23;20018;-84
2023/02/25 11:42:06;;;;;;;5.90;3.90;;;;;;;5.62;62.51;98014.81;5840396;24;20154;-83
2023/02/25 11:55:11;;;;;;;5.32;3.50;;;;;;;6.02;61.61;98084.72;5827316;24;20033;-86
2023/02/25 11:59:19;;;;;;;;;;;;;;;;;;;;;
2023/02/25 12:06:46;;;;;;;4.75;3.47;;;;;;;5.96;62.53;98089.94;5784935;24;20045;-83
2023/02/25 12:09:51;;;;;;;6.25;4.13;;;;;;;5.97;61.65;98093.38;5935444;24;20475;-82
2023/02/25 12:26:00;;;;;;;10.80;3.85;;;;;;;5.60;62.09;98115.50;5898646;24;20527;-83
2023/02/25 12:29:06;;;;;;;5.20;3.75;;;;;;;5.51;62.35;98106.19;5963839;24;20475;-85
2023/02/25 12:33:17;;;;;;;9.60;3.70;;;;;;;5.38;62.09;98118.41;5944351;24;20032;-83
2023/02/25 12:36:33;;;;;;;;;;;;;;;;;;;;;
2023/02/25 12:39:38;;;;;;;4.20;3.38;;;;;;;5.13;62.83;98116.19;6000948;23;20023;-84
2023/02/25 12:42:49;;;;;;;4.82;3.45;;;;;;;5.04;63.10;98103.41;6000498;23;20026;-84
2023/02/25 12:46:25;;;;;;;5.55;3.97;;;;;;;5.02;63.03;98109.47;6000254;23;20019;-82
2023/02/25 12:49:43;;;;;;;;;;;;;;;;;;;;;
2023/02/25 12:53:58;;;;;;;;;;;;;;;;;;;;;
2023/02/25 12:57:14;;;;;;;4.40;3.30;;;;;;;4.96;62.62;98120.72;6112151;23;20022;-84
2023/02/25 13:00:08;;;;;;;5.20;3.55;;;;;;;4.91;63.47;98112.19;6062908;23;20026;-85
2023/02/25 13:03:28;;;;;;;5.75;3.80;;;;;;;4.85;63.93;98101.94;6108640;23;20014;-84
2023/02/25 13:06:20;;;;;;;5.35;3.35;;;;;;;4.87;64.23;98115.66;6059430;23;20041;-86
2023/02/25 13:13:43;;;;;;;5.72;3.47;;;;;;;4.71;63.91;98105.56;6087501;23;20049;-82
2023/02/25 13:16:46;;;;;;;;;;;;;;;4.65;64.17;98109.03;6083462;23;20314;-84
2023/02/25 13:19:53;;;;;;;4.68;3.55;;;;;;;4.58;63.92;98101.41;6082463;23;19923;-86
2023/02/25 13:23:36;;;;;;;6.95;3.75;;;;;;;4.55;63.68;98117.75;6062866;23;20531;-86
2023/02/25 13:27:22;;;;;;;6.13;4.15;;;;;;;4.52;64.52;98113.47;6109910;23;20026;-84
2023/02/25 13:34:38;;;;;;;7.20;4.28;;;;;;;4.38;64.98;98110.22;6118444;23;20034;-88
2023/02/25 13:38:03;;;;;;;5.25;4.20;;;;;;;4.39;64.77;98111.09;6108136;23;20081;-84
2023/02/25 13:42:15;;;;;;;;;;;;;;;;;;;;;
2023/02/25 13:46:29;;;;;;;5.80;4.38;;;;;;;4.03;64.92;98072.81;5978097;24;20024;-84
2023/02/25 13:58:31;;;;;;;7.55;3.88;;;;;;;4.21;65.13;98107.81;6117240;23;20469;-84
2023/02/25 14:25:11;;;;;;;7.18;3.78;;;;;;;4.15;65.69;98108.72;5812541;24;19998;-81
2023/02/25 14:28:15;;;;;;;5.22;3.42;;;;;;;4.04;65.83;98124.28;5843256;24;20018;-84
2023/02/25 14:31:33;;;;;;;7.05;3.80;;;;;;;4.00;65.75;98130.31;5943322;23;20023;-84
2023/02/25 14:35:06;;;;;;;;;;;;;;;;;;;;;
2023/02/25 14:38:29;;;;;;;7.40;3.90;;;;;;;3.89;66.42;98112.41;6070400;23;20021;-82
2023/02/25 14:41:25;;;;;;;7.68;4.53;;;;;;;3.89;66.45;98107.25;5935449;24;20055;-85
2023/02/25 14:43:55;;;;;;;7.43;4.43;;;;;;;3.37;65.82;98051.94;6071873;23;20015;-82
2023/02/25 14:47:13;;;;;;;;;;;;;;;;;;;;;
2023/02/25 14:50:09;;;;;;;6.88;4.13;;;;;;;3.52;66.77;98093.84;6070216;23;20046;-84
2023/02/25 14:53:42;;;;;;;6.90;4.45;;;;;;;3.43;67.16;98105.03;5962099;23;20014;-81
2023/02/25 14:56:41;;;;;;;6.30;4.07;;;;;;;3.54;67.26;98130.69;6020920;23;20042;-83
2023/02/25 14:59:38;;;;;;;6.57;3.92;;;;;;;3.51;67.43;98126.44;6021908;23;20015;-82
2023/02/25 15:02:19;;;;;;;5.53;4.07;;;;;;;3.54;67.58;98135.81;6023430;23;20029;-83
2023/02/25 15:05:17;;;;;;;8.90;4.70;;;;;;;2.98;67.22;98041.09;6047327;23;20025;-82
2023/02/25 15:08:23;;;;;;;7.05;4.47;;;;;;;3.54;67.71;98130.69;6029339;23;20082;-83
2023/02/25 15:11:09;;;;;;;7.30;4.72;;;;;;;3.53;67.35;98129.84;6058339;23;20096;-82
2023/02/25 15:14:25;;;;;;;8.25;4.60;;;;;;;3.02;67.67;98050.50;6107279;23;20021;-82
2023/02/25 15:17:22;;;;;;;8.18;5.38;;;;;;;2.93;67.47;98038.56;6083058;23;20046;-84
2023/02/25 15:20:19;;;;;;;7.95;4.93;;;;;;;3.40;67.85;98120.53;6098164;23;20042;-83
2023/02/25 15:23:16;;;;;;;8.98;4.90;;;;;;;3.37;67.93;98135.97;6100043;23;20393;-82
2023/02/25 15:25:54;;;;;;;6.88;4.68;;;;;;;3.36;68.21;98117.09;6047746;23;20499;-82
2023/02/25 15:28:28;;;;;;;11.55;5.85;;;;;;;3.37;68.20;98108.53;6098089;23;20023;-86
2023/02/25 15:35:18;;;;;;;10.10;5.90;;;;;;;2.71;68.05;97979.59;6122456;23;20104;-83
2023/02/25 15:37:54;;;;;;;9.70;5.40;;;;;;;3.46;68.50;98111.03;6076909;23;20404;-84
2023/02/25 15:45:12;;;;;;;12.13;6.70;;;;;;;3.00;68.27;98047.91;5922652;23;20040;-84
2023/02/25 15:48:14;;;;;;;10.88;6.07;;;;;;;3.49;68.56;98109.31;6044952;23;20023;-85
2023/02/25 15:52:29;;;;;;;;;;;;;;;;;;;;;
2023/02/25 15:56:16;;;;;;;11.23;6.85;;;;;;;2.71;68.18;98000.16;5911753;24;20478;-86
2023/02/25 15:59:34;;;;;;;12.07;6.82;;;;;;;3.25;68.54;98081.16;5919805;23;20020;-85
2023/02/25 16:02:28;;;;;;;12.32;6.70;;;;;;;3.36;68.45;98111.13;5960851;23;20062;-85
2023/02/25 16:05:30;;;;;;;12.98;7.05;;;;;;;3.26;68.34;98106.03;6071022;23;20069;-87
2023/02/25 16:08:43;;;;;;;9.13;5.63;;;;;;;2.76;68.48;98043.78;6085073;23;20038;-87
2023/02/25 16:11:23;;;;;;;9.18;5.78;;;;;;;2.80;68.64;98052.31;6057764;23;20030;-84
2023/02/25 16:13:52;;;;;;;10.77;6.50;;;;;;;3.10;68.87;98104.41;6103555;23;20027;-82
2023/02/25 16:21:18;;;;;;;10.98;6.60;;;;;;;2.27;68.80;97993.53;6053446;23;20014;-85
2023/02/25 16:24:51;;;;;;;11.60;6.18;;;;;;;2.18;68.90;97991.84;6055098;23;20026;-83